Sterling, Georgia
Current Conditions -  °F | °C
As of 3:55 PM on Saturday 25 Oct 2014 (Local Time) from KBQK Reporting Station
Clear Clear  
Wind Chill: 25°   Ceiling: Unl
Heat Index: 25°   Visibility: 10mi
Dew Point:   Wind: 5mph
Humidity: 28%   Direction: 290°WNW
Pressure: 29.98"   Gusts: NA
Location:  31.2665°N, 81.6074°W
Report Text: KBQK 251955Z AUTO 29004KT 10SM CLR 25/05 A2998 RMK AO1
Loading
Personal Weather Stations






























Interactive Weather Map
Tropical Storm Tracking
New forecast layout! Learn more

10-Day Weather Forecast

Advertisements
Track Severe Weather on mobile